sensor_id;sensor_type;location;lat;lon;timestamp;P1;durP1;ratioP1;P2;durP2;ratioP2
67544;SDS011;54380;47.770;11.150;2023-02-28T00:00:12;6.40;;;1.73;;
67544;SDS011;54380;47.770;11.150;2023-02-28T00:02:40;4.55;;;1.05;;
67544;SDS011;54380;47.770;11.150;2023-02-28T00:05:08;4.65;;;0.85;;
67544;SDS011;54380;47.770;11.150;2023-02-28T00:07:37;8.32;;;0.98;;
67544;SDS011;54380;47.770;11.150;2023-02-28T00:10:04;7.38;;;1.42;;
67544;SDS011;54380;47.770;11.150;2023-02-28T00:12:33;9.25;;;1.13;;
67544;SDS011;54380;47.770;11.150;2023-02-28T00:15:02;4.47;;;0.90;;
67544;SDS011;54380;47.770;11.150;2023-02-28T00:17:31;6.15;;;1.05;;
67544;SDS011;54380;47.770;11.150;2023-02-28T00:19:58;12.18;;;1.77;;
67544;SDS011;54380;47.770;11.150;2023-02-28T00:22:38;4.25;;;0.85;;
67544;SDS011;54380;47.770;11.150;2023-02-28T00:25:07;5.57;;;0.95;;
67544;SDS011;54380;47.770;11.150;2023-02-28T00:27:35;6.32;;;1.10;;
67544;SDS011;54380;47.770;11.150;2023-02-28T00:30:05;7.63;;;1.38;;
67544;SDS011;54380;47.770;11.150;2023-02-28T00:32:36;11.93;;;1.52;;
67544;SDS011;54380;47.770;11.150;2023-02-28T00:35:03;8.43;;;1.08;;
67544;SDS011;54380;47.770;11.150;2023-02-28T00:37:31;6.82;;;1.25;;
67544;SDS011;54380;47.770;11.150;2023-02-28T00:39:58;5.13;;;0.75;;
67544;SDS011;54380;47.770;11.150;2023-02-28T00:42:25;6.15;;;0.95;;
67544;SDS011;54380;47.770;11.150;2023-02-28T00:44:53;6.15;;;1.45;;
67544;SDS011;54380;47.770;11.150;2023-02-28T00:47:21;6.78;;;1.23;;
67544;SDS011;54380;47.770;11.150;2023-02-28T00:49:48;7.72;;;0.85;;
67544;SDS011;54380;47.770;11.150;2023-02-28T00:52:15;6.07;;;1.08;;
67544;SDS011;54380;47.770;11.150;2023-02-28T00:54:41;6.88;;;1.00;;
67544;SDS011;54380;47.770;11.150;2023-02-28T00:57:08;5.13;;;1.23;;
67544;SDS011;54380;47.770;11.150;2023-02-28T00:59:35;6.97;;;1.75;;
67544;SDS011;54380;47.770;11.150;2023-02-28T01:02:01;5.97;;;1.25;;
67544;SDS011;54380;47.770;11.150;2023-02-28T01:04:30;5.82;;;0.95;;
67544;SDS011;54380;47.770;11.150;2023-02-28T01:07:00;7.00;;;0.95;;
67544;SDS011;54380;47.770;11.150;2023-02-28T01:09:27;4.78;;;0.75;;
67544;SDS011;54380;47.770;11.150;2023-02-28T01:11:54;6.70;;;1.17;;
67544;SDS011;54380;47.770;11.150;2023-02-28T01:14:21;7.30;;;1.08;;
67544;SDS011;54380;47.770;11.150;2023-02-28T01:16:48;4.57;;;1.00;;
67544;SDS011;54380;47.770;11.150;2023-02-28T01:19:15;7.03;;;1.23;;
67544;SDS011;54380;47.770;11.150;2023-02-28T01:21:44;6.25;;;1.30;;
67544;SDS011;54380;47.770;11.150;2023-02-28T01:24:12;4.93;;;1.15;;
67544;SDS011;54380;47.770;11.150;2023-02-28T01:26:38;6.43;;;1.08;;
67544;SDS011;54380;47.770;11.150;2023-02-28T01:29:06;5.47;;;1.08;;
67544;SDS011;54380;47.770;11.150;2023-02-28T01:31:33;6.30;;;0.90;;
67544;SDS011;54380;47.770;11.150;2023-02-28T01:34:00;5.63;;;0.95;;
67544;SDS011;54380;47.770;11.150;2023-02-28T01:36:27;6.65;;;1.33;;
67544;SDS011;54380;47.770;11.150;2023-02-28T01:38:56;4.72;;;0.80;;
67544;SDS011;54380;47.770;11.150;2023-02-28T01:41:24;5.45;;;0.93;;
67544;SDS011;54380;47.770;11.150;2023-02-28T01:43:55;6.88;;;1.27;;
67544;SDS011;54380;47.770;11.150;2023-02-28T01:46:24;6.03;;;1.10;;
67544;SDS011;54380;47.770;11.150;2023-02-28T01:48:54;6.07;;;1.55;;
67544;SDS011;54380;47.770;11.150;2023-02-28T01:51:26;6.80;;;1.20;;
67544;SDS011;54380;47.770;11.150;2023-02-28T01:53:59;7.43;;;1.30;;
67544;SDS011;54380;47.770;11.150;2023-02-28T01:56:31;4.45;;;0.63;;
67544;SDS011;54380;47.770;11.150;2023-02-28T01:59:03;6.20;;;1.38;;
67544;SDS011;54380;47.770;11.150;2023-02-28T02:01:31;6.55;;;1.20;;
67544;SDS011;54380;47.770;11.150;2023-02-28T02:04:01;7.20;;;1.25;;
67544;SDS011;54380;47.770;11.150;2023-02-28T02:06:30;5.38;;;1.17;;
67544;SDS011;54380;47.770;11.150;2023-02-28T02:09:01;7.05;;;0.90;;
67544;SDS011;54380;47.770;11.150;2023-02-28T02:11:29;4.25;;;1.02;;
67544;SDS011;54380;47.770;11.150;2023-02-28T02:14:07;6.47;;;1.55;;
67544;SDS011;54380;47.770;11.150;2023-02-28T02:16:48;7.10;;;0.70;;
67544;SDS011;54380;47.770;11.150;2023-02-28T02:19:28;14.45;;;1.85;;
67544;SDS011;54380;47.770;11.150;2023-02-28T02:22:12;5.22;;;1.17;;
67544;SDS011;54380;47.770;11.150;2023-02-28T02:27:48;5.68;;;1.05;;
67544;SDS011;54380;47.770;11.150;2023-02-28T02:30:33;6.53;;;1.55;;
67544;SDS011;54380;47.770;11.150;2023-02-28T02:33:24;4.88;;;1.08;;
67544;SDS011;54380;47.770;11.150;2023-02-28T02:36:12;6.38;;;1.35;;
67544;SDS011;54380;47.770;11.150;2023-02-28T02:38:47;5.32;;;1.17;;
67544;SDS011;54380;47.770;11.150;2023-02-28T02:41:19;5.97;;;1.27;;
67544;SDS011;54380;47.770;11.150;2023-02-28T02:43:53;8.63;;;0.90;;
67544;SDS011;54380;47.770;11.150;2023-02-28T02:46:29;5.43;;;1.05;;
67544;SDS011;54380;47.770;11.150;2023-02-28T02:49:00;5.60;;;0.93;;
67544;SDS011;54380;47.770;11.150;2023-02-28T02:51:35;6.75;;;1.20;;
67544;SDS011;54380;47.770;11.150;2023-02-28T02:54:05;6.93;;;1.05;;
67544;SDS011;54380;47.770;11.150;2023-02-28T02:56:39;7.60;;;1.23;;
67544;SDS011;54380;47.770;11.150;2023-02-28T02:59:09;7.75;;;1.48;;
67544;SDS011;54380;47.770;11.150;2023-02-28T03:01:39;7.90;;;1.73;;
67544;SDS011;54380;47.770;11.150;2023-02-28T03:04:08;5.75;;;1.30;;
67544;SDS011;54380;47.770;11.150;2023-02-28T03:06:39;7.05;;;1.67;;
67544;SDS011;54380;47.770;11.150;2023-02-28T03:09:06;9.23;;;1.63;;
67544;SDS011;54380;47.770;11.150;2023-02-28T03:11:32;7.55;;;1.42;;
67544;SDS011;54380;47.770;11.150;2023-02-28T03:14:09;5.78;;;1.65;;
67544;SDS011;54380;47.770;11.150;2023-02-28T03:16:51;7.50;;;1.23;;
67544;SDS011;54380;47.770;11.150;2023-02-28T03:19:37;6.43;;;1.20;;
67544;SDS011;54380;47.770;11.150;2023-02-28T03:22:17;6.18;;;1.45;;
67544;SDS011;54380;47.770;11.150;2023-02-28T03:24:54;5.40;;;1.27;;
67544;SDS011;54380;47.770;11.150;2023-02-28T03:27:25;5.78;;;1.33;;
67544;SDS011;54380;47.770;11.150;2023-02-28T03:29:57;5.97;;;1.10;;
67544;SDS011;54380;47.770;11.150;2023-02-28T03:32:29;6.80;;;1.35;;
67544;SDS011;54380;47.770;11.150;2023-02-28T03:35:02;5.28;;;1.17;;
67544;SDS011;54380;47.770;11.150;2023-02-28T03:37:35;5.05;;;0.93;;
67544;SDS011;54380;47.770;11.150;2023-02-28T03:40:07;6.28;;;1.42;;
67544;SDS011;54380;47.770;11.150;2023-02-28T03:42:39;5.63;;;0.95;;
67544;SDS011;54380;47.770;11.150;2023-02-28T03:45:18;4.63;;;0.82;;
67544;SDS011;54380;47.770;11.150;2023-02-28T03:47:49;7.43;;;1.38;;
67544;SDS011;54380;47.770;11.150;2023-02-28T03:50:19;5.35;;;1.48;;
67544;SDS011;54380;47.770;11.150;2023-02-28T03:52:52;5.57;;;1.13;;
67544;SDS011;54380;47.770;11.150;2023-02-28T03:55:28;3.42;;;0.70;;
67544;SDS011;54380;47.770;11.150;2023-02-28T03:58:01;4.47;;;1.27;;
67544;SDS011;54380;47.770;11.150;2023-02-28T04:00:35;5.70;;;1.10;;
67544;SDS011;54380;47.770;11.150;2023-02-28T04:03:06;4.22;;;0.82;;
67544;SDS011;54380;47.770;11.150;2023-02-28T04:05:32;3.95;;;0.65;;
67544;SDS011;54380;47.770;11.150;2023-02-28T04:08:11;4.38;;;1.10;;
67544;SDS011;54380;47.770;11.150;2023-02-28T04:10:38;5.22;;;0.90;;
67544;SDS011;54380;47.770;11.150;2023-02-28T04:13:06;10.45;;;1.02;;
67544;SDS011;54380;47.770;11.150;2023-02-28T04:15:32;10.40;;;1.40;;
67544;SDS011;54380;47.770;11.150;2023-02-28T04:17:59;3.15;;;0.60;;
67544;SDS011;54380;47.770;11.150;2023-02-28T04:20:26;5.82;;;0.98;;
67544;SDS011;54380;47.770;11.150;2023-02-28T04:22:52;4.18;;;0.80;;
67544;SDS011;54380;47.770;11.150;2023-02-28T04:25:20;6.38;;;0.90;;
67544;SDS011;54380;47.770;11.150;2023-02-28T04:27:48;5.78;;;1.05;;
67544;SDS011;54380;47.770;11.150;2023-02-28T04:30:14;6.40;;;1.08;;
67544;SDS011;54380;47.770;11.150;2023-02-28T04:32:42;4.85;;;1.08;;
67544;SDS011;54380;47.770;11.150;2023-02-28T04:35:08;4.68;;;0.85;;
67544;SDS011;54380;47.770;11.150;2023-02-28T04:37:37;6.47;;;1.13;;
67544;SDS011;54380;47.770;11.150;2023-02-28T04:40:05;7.45;;;1.05;;
67544;SDS011;54380;47.770;11.150;2023-02-28T04:42:34;6.05;;;1.10;;
67544;SDS011;54380;47.770;11.150;2023-02-28T04:45:02;4.97;;;1.05;;
67544;SDS011;54380;47.770;11.150;2023-02-28T04:47:29;5.82;;;1.35;;
67544;SDS011;54380;47.770;11.150;2023-02-28T04:49:57;7.25;;;1.38;;
67544;SDS011;54380;47.770;11.150;2023-02-28T04:52:24;7.38;;;1.23;;
67544;SDS011;54380;47.770;11.150;2023-02-28T04:54:50;5.63;;;1.17;;
67544;SDS011;54380;47.770;11.150;2023-02-28T04:57:17;5.60;;;1.15;;
67544;SDS011;54380;47.770;11.150;2023-02-28T04:59:45;8.30;;;1.63;;
67544;SDS011;54380;47.770;11.150;2023-02-28T05:02:12;5.97;;;1.05;;
67544;SDS011;54380;47.770;11.150;2023-02-28T05:04:38;6.75;;;1.08;;
67544;SDS011;54380;47.770;11.150;2023-02-28T05:07:05;5.65;;;1.20;;
67544;SDS011;54380;47.770;11.150;2023-02-28T05:09:32;5.55;;;1.25;;
67544;SDS011;54380;47.770;11.150;2023-02-28T05:11:59;7.93;;;1.85;;
67544;SDS011;54380;47.770;11.150;2023-02-28T05:14:27;9.45;;;2.10;;
67544;SDS011;54380;47.770;11.150;2023-02-28T05:16:55;6.35;;;1.50;;
67544;SDS011;54380;47.770;11.150;2023-02-28T05:19:22;8.35;;;1.88;;
67544;SDS011;54380;47.770;11.150;2023-02-28T05:21:49;8.75;;;1.92;;
67544;SDS011;54380;47.770;11.150;2023-02-28T05:24:17;9.93;;;1.85;;
67544;SDS011;54380;47.770;11.150;2023-02-28T05:26:50;6.65;;;1.65;;
67544;SDS011;54380;47.770;11.150;2023-02-28T05:29:18;5.55;;;1.70;;
67544;SDS011;54380;47.770;11.150;2023-02-28T05:31:45;8.48;;;1.52;;
67544;SDS011;54380;47.770;11.150;2023-02-28T05:34:13;29.65;;;2.38;;
67544;SDS011;54380;47.770;11.150;2023-02-28T05:36:41;9.18;;;2.75;;
67544;SDS011;54380;47.770;11.150;2023-02-28T05:39:08;6.15;;;1.25;;
67544;SDS011;54380;47.770;11.150;2023-02-28T05:41:40;8.88;;;2.15;;
67544;SDS011;54380;47.770;11.150;2023-02-28T05:44:06;6.90;;;1.70;;
67544;SDS011;54380;47.770;11.150;2023-02-28T05:46:33;6.75;;;1.63;;
67544;SDS011;54380;47.770;11.150;2023-02-28T05:49:01;5.72;;;1.27;;
67544;SDS011;54380;47.770;11.150;2023-02-28T05:51:29;7.60;;;2.05;;
67544;SDS011;54380;47.770;11.150;2023-02-28T05:54:00;12.75;;;2.38;;
67544;SDS011;54380;47.770;11.150;2023-02-28T05:56:27;10.77;;;2.55;;
67544;SDS011;54380;47.770;11.150;2023-02-28T05:58:54;8.38;;;1.92;;
67544;SDS011;54380;47.770;11.150;2023-02-28T06:01:30;10.32;;;2.85;;
67544;SDS011;54380;47.770;11.150;2023-02-28T06:03:58;18.52;;;6.28;;
67544;SDS011;54380;47.770;11.150;2023-02-28T06:06:26;5.35;;;1.13;;
67544;SDS011;54380;47.770;11.150;2023-02-28T06:08:55;9.13;;;2.30;;
67544;SDS011;54380;47.770;11.150;2023-02-28T06:11:21;10.10;;;2.08;;
67544;SDS011;54380;47.770;11.150;2023-02-28T06:13:53;8.20;;;1.92;;
67544;SDS011;54380;47.770;11.150;2023-02-28T06:16:21;11.48;;;2.67;;
67544;SDS011;54380;47.770;11.150;2023-02-28T06:18:49;7.47;;;2.10;;
67544;SDS011;54380;47.770;11.150;2023-02-28T06:21:15;8.18;;;2.10;;
67544;SDS011;54380;47.770;11.150;2023-02-28T06:23:42;12.07;;;3.80;;
67544;SDS011;54380;47.770;11.150;2023-02-28T06:26:10;11.07;;;2.72;;
67544;SDS011;54380;47.770;11.150;2023-02-28T06:28:37;10.80;;;3.67;;
67544;SDS011;54380;47.770;11.150;2023-02-28T06:31:07;11.18;;;3.92;;
67544;SDS011;54380;47.770;11.150;2023-02-28T06:33:36;9.75;;;2.88;;
67544;SDS011;54380;47.770;11.150;2023-02-28T06:36:03;9.13;;;2.40;;
67544;SDS011;54380;47.770;11.150;2023-02-28T06:38:31;13.25;;;3.25;;
67544;SDS011;54380;47.770;11.150;2023-02-28T06:40:58;9.70;;;3.05;;
67544;SDS011;54380;47.770;11.150;2023-02-28T06:43:28;8.32;;;2.30;;
67544;SDS011;54380;47.770;11.150;2023-02-28T06:45:58;22.70;;;5.05;;
67544;SDS011;54380;47.770;11.150;2023-02-28T06:48:26;12.02;;;3.47;;
67544;SDS011;54380;47.770;11.150;2023-02-28T06:51:02;26.13;;;6.95;;
67544;SDS011;54380;47.770;11.150;2023-02-28T06:53:30;15.02;;;3.90;;
67544;SDS011;54380;47.770;11.150;2023-02-28T06:55:57;14.38;;;5.85;;
67544;SDS011;54380;47.770;11.150;2023-02-28T06:58:23;13.75;;;5.18;;
67544;SDS011;54380;47.770;11.150;2023-02-28T07:00:52;17.20;;;4.25;;
67544;SDS011;54380;47.770;11.150;2023-02-28T07:03:20;21.95;;;8.68;;
67544;SDS011;54380;47.770;11.150;2023-02-28T07:05:47;16.60;;;5.47;;
67544;SDS011;54380;47.770;11.150;2023-02-28T07:08:14;17.50;;;5.10;;
67544;SDS011;54380;47.770;11.150;2023-02-28T07:10:41;13.43;;;5.25;;
67544;SDS011;54380;47.770;11.150;2023-02-28T07:13:08;16.80;;;5.03;;
67544;SDS011;54380;47.770;11.150;2023-02-28T07:15:35;14.85;;;4.43;;
67544;SDS011;54380;47.770;11.150;2023-02-28T07:18:08;15.15;;;5.03;;
67544;SDS011;54380;47.770;11.150;2023-02-28T07:20:35;13.25;;;4.18;;
67544;SDS011;54380;47.770;11.150;2023-02-28T07:23:01;14.07;;;5.15;;
67544;SDS011;54380;47.770;11.150;2023-02-28T07:25:28;11.77;;;3.22;;
67544;SDS011;54380;47.770;11.150;2023-02-28T07:27:55;12.98;;;3.70;;
67544;SDS011;54380;47.770;11.150;2023-02-28T07:30:22;6.88;;;2.13;;
67544;SDS011;54380;47.770;11.150;2023-02-28T07:32:49;9.82;;;3.05;;
67544;SDS011;54380;47.770;11.150;2023-02-28T07:35:17;10.05;;;2.58;;
67544;SDS011;54380;47.770;11.150;2023-02-28T07:37:44;11.27;;;3.15;;
67544;SDS011;54380;47.770;11.150;2023-02-28T07:40:11;12.15;;;3.60;;
67544;SDS011;54380;47.770;11.150;2023-02-28T07:42:39;10.50;;;3.33;;
67544;SDS011;54380;47.770;11.150;2023-02-28T07:45:08;9.90;;;2.80;;
67544;SDS011;54380;47.770;11.150;2023-02-28T07:50:05;4.78;;;1.45;;
67544;SDS011;54380;47.770;11.150;2023-02-28T07:52:33;9.85;;;2.92;;
67544;SDS011;54380;47.770;11.150;2023-02-28T07:55:00;9.80;;;2.58;;
67544;SDS011;54380;47.770;11.150;2023-02-28T07:57:27;5.90;;;1.40;;
67544;SDS011;54380;47.770;11.150;2023-02-28T07:59:53;10.30;;;2.85;;
67544;SDS011;54380;47.770;11.150;2023-02-28T08:02:20;18.48;;;4.55;;
67544;SDS011;54380;47.770;11.150;2023-02-28T08:04:47;7.95;;;1.92;;
67544;SDS011;54380;47.770;11.150;2023-02-28T08:07:16;10.95;;;2.88;;
67544;SDS011;54380;47.770;11.150;2023-02-28T08:09:44;9.05;;;2.17;;
67544;SDS011;54380;47.770;11.150;2023-02-28T08:12:11;12.65;;;3.50;;
67544;SDS011;54380;47.770;11.150;2023-02-28T08:14:38;12.05;;;3.00;;
67544;SDS011;54380;47.770;11.150;2023-02-28T08:17:06;11.18;;;2.45;;
67544;SDS011;54380;47.770;11.150;2023-02-28T08:19:32;9.05;;;2.40;;
67544;SDS011;54380;47.770;11.150;2023-02-28T08:21:59;13.48;;;3.33;;
67544;SDS011;54380;47.770;11.150;2023-02-28T08:24:26;9.38;;;2.83;;
67544;SDS011;54380;47.770;11.150;2023-02-28T08:26:54;9.32;;;2.15;;
67544;SDS011;54380;47.770;11.150;2023-02-28T08:29:21;9.85;;;3.20;;
67544;SDS011;54380;47.770;11.150;2023-02-28T08:31:49;11.85;;;2.75;;
67544;SDS011;54380;47.770;11.150;2023-02-28T08:34:16;8.80;;;3.28;;
67544;SDS011;54380;47.770;11.150;2023-02-28T08:36:43;12.82;;;3.70;;
67544;SDS011;54380;47.770;11.150;2023-02-28T08:39:11;12.32;;;3.38;;
67544;SDS011;54380;47.770;11.150;2023-02-28T08:41:38;4.78;;;2.08;;
67544;SDS011;54380;47.770;11.150;2023-02-28T08:44:06;12.55;;;3.58;;
67544;SDS011;54380;47.770;11.150;2023-02-28T08:46:33;10.73;;;2.28;;
67544;SDS011;54380;47.770;11.150;2023-02-28T08:49:00;12.52;;;3.22;;
67544;SDS011;54380;47.770;11.150;2023-02-28T08:51:28;9.43;;;2.92;;
67544;SDS011;54380;47.770;11.150;2023-02-28T08:53:57;9.75;;;2.95;;
67544;SDS011;54380;47.770;11.150;2023-02-28T08:58:53;7.50;;;2.22;;
67544;SDS011;54380;47.770;11.150;2023-02-28T09:01:23;6.68;;;1.98;;
67544;SDS011;54380;47.770;11.150;2023-02-28T09:03:54;18.08;;;4.25;;
67544;SDS011;54380;47.770;11.150;2023-02-28T09:06:22;12.52;;;3.63;;
67544;SDS011;54380;47.770;11.150;2023-02-28T09:08:51;11.50;;;2.90;;
67544;SDS011;54380;47.770;11.150;2023-02-28T09:11:18;11.55;;;4.15;;
67544;SDS011;54380;47.770;11.150;2023-02-28T09:13:45;12.27;;;3.78;;
67544;SDS011;54380;47.770;11.150;2023-02-28T09:16:13;9.57;;;3.10;;
67544;SDS011;54380;47.770;11.150;2023-02-28T09:18:42;17.88;;;4.10;;
67544;SDS011;54380;47.770;11.150;2023-02-28T09:21:11;11.38;;;3.58;;
67544;SDS011;54380;47.770;11.150;2023-02-28T09:23:42;10.40;;;3.47;;
67544;SDS011;54380;47.770;11.150;2023-02-28T09:26:13;15.30;;;3.67;;
67544;SDS011;54380;47.770;11.150;2023-02-28T09:31:10;14.23;;;3.90;;
67544;SDS011;54380;47.770;11.150;2023-02-28T09:33:38;13.15;;;3.00;;
67544;SDS011;54380;47.770;11.150;2023-02-28T09:36:07;12.90;;;3.65;;
67544;SDS011;54380;47.770;11.150;2023-02-28T09:38:34;11.63;;;2.88;;
67544;SDS011;54380;47.770;11.150;2023-02-28T09:41:03;11.27;;;2.72;;
67544;SDS011;54380;47.770;11.150;2023-02-28T09:43:38;10.38;;;2.85;;
67544;SDS011;54380;47.770;11.150;2023-02-28T09:46:12;11.75;;;3.80;;
67544;SDS011;54380;47.770;11.150;2023-02-28T09:48:47;13.63;;;3.88;;
67544;SDS011;54380;47.770;11.150;2023-02-28T09:51:22;14.07;;;4.45;;
67544;SDS011;54380;47.770;11.150;2023-02-28T09:53:56;12.27;;;3.15;;
67544;SDS011;54380;47.770;11.150;2023-02-28T09:56:28;14.48;;;4.50;;
67544;SDS011;54380;47.770;11.150;2023-02-28T09:59:00;14.95;;;4.22;;
67544;SDS011;54380;47.770;11.150;2023-02-28T10:01:34;11.68;;;2.85;;
67544;SDS011;54380;47.770;11.150;2023-02-28T10:04:08;11.23;;;3.25;;
67544;SDS011;54380;47.770;11.150;2023-02-28T10:06:41;14.20;;;3.65;;
67544;SDS011;54380;47.770;11.150;2023-02-28T10:09:13;16.08;;;5.13;;
67544;SDS011;54380;47.770;11.150;2023-02-28T10:11:43;14.30;;;4.63;;
67544;SDS011;54380;47.770;11.150;2023-02-28T10:14:18;12.02;;;3.75;;
67544;SDS011;54380;47.770;11.150;2023-02-28T10:16:47;12.80;;;3.83;;
67544;SDS011;54380;47.770;11.150;2023-02-28T10:19:20;14.57;;;4.25;;
67544;SDS011;54380;47.770;11.150;2023-02-28T10:21:54;12.45;;;3.45;;
67544;SDS011;54380;47.770;11.150;2023-02-28T10:24:29;11.30;;;3.47;;
67544;SDS011;54380;47.770;11.150;2023-02-28T10:27:00;13.70;;;5.15;;
67544;SDS011;54380;47.770;11.150;2023-02-28T10:29:31;15.68;;;4.15;;
67544;SDS011;54380;47.770;11.150;2023-02-28T10:32:00;14.10;;;3.97;;
67544;SDS011;54380;47.770;11.150;2023-02-28T10:34:28;12.25;;;3.08;;
67544;SDS011;54380;47.770;11.150;2023-02-28T10:36:56;14.77;;;4.38;;
67544;SDS011;54380;47.770;11.150;2023-02-28T10:39:34;14.48;;;3.47;;
67544;SDS011;54380;47.770;11.150;2023-02-28T10:42:16;12.77;;;3.88;;
67544;SDS011;54380;47.770;11.150;2023-02-28T10:44:46;11.27;;;3.70;;
67544;SDS011;54380;47.770;11.150;2023-02-28T10:47:14;15.52;;;5.22;;
67544;SDS011;54380;47.770;11.150;2023-02-28T10:49:46;12.80;;;4.28;;
67544;SDS011;54380;47.770;11.150;2023-02-28T10:52:15;12.98;;;3.85;;
67544;SDS011;54380;47.770;11.150;2023-02-28T10:55:13;10.73;;;3.55;;
67544;SDS011;54380;47.770;11.150;2023-02-28T10:57:42;11.13;;;3.38;;
67544;SDS011;54380;47.770;11.150;2023-02-28T11:00:12;13.13;;;4.03;;
67544;SDS011;54380;47.770;11.150;2023-02-28T11:02:41;14.52;;;4.45;;
67544;SDS011;54380;47.770;11.150;2023-02-28T11:05:26;12.70;;;4.22;;
67544;SDS011;54380;47.770;11.150;2023-02-28T11:10:26;13.77;;;4.13;;
67544;SDS011;54380;47.770;11.150;2023-02-28T11:12:56;16.20;;;4.50;;
67544;SDS011;54380;47.770;11.150;2023-02-28T11:15:27;13.40;;;3.88;;
67544;SDS011;54380;47.770;11.150;2023-02-28T11:17:56;13.98;;;4.22;;
67544;SDS011;54380;47.770;11.150;2023-02-28T11:20:26;14.40;;;4.35;;
67544;SDS011;54380;47.770;11.150;2023-02-28T11:22:57;16.00;;;5.88;;
67544;SDS011;54380;47.770;11.150;2023-02-28T11:25:25;14.65;;;3.85;;
67544;SDS011;54380;47.770;11.150;2023-02-28T11:27:55;10.27;;;2.83;;
67544;SDS011;54380;47.770;11.150;2023-02-28T11:30:31;16.10;;;4.50;;
67544;SDS011;54380;47.770;11.150;2023-02-28T11:33:01;13.30;;;4.20;;
67544;SDS011;54380;47.770;11.150;2023-02-28T11:35:46;14.48;;;4.78;;
67544;SDS011;54380;47.770;11.150;2023-02-28T11:38:19;14.60;;;4.90;;
67544;SDS011;54380;47.770;11.150;2023-02-28T11:40:47;15.23;;;4.65;;
67544;SDS011;54380;47.770;11.150;2023-02-28T11:43:29;13.52;;;4.00;;
67544;SDS011;54380;47.770;11.150;2023-02-28T11:46:07;16.83;;;4.55;;
67544;SDS011;54380;47.770;11.150;2023-02-28T11:48:47;17.33;;;6.32;;
67544;SDS011;54380;47.770;11.150;2023-02-28T11:51:26;15.23;;;4.85;;
67544;SDS011;54380;47.770;11.150;2023-02-28T11:54:11;13.50;;;3.58;;
67544;SDS011;54380;47.770;11.150;2023-02-28T11:56:57;15.23;;;4.97;;
67544;SDS011;54380;47.770;11.150;2023-02-28T11:59:35;15.05;;;5.05;;
67544;SDS011;54380;47.770;11.150;2023-02-28T12:02:20;14.13;;;5.03;;
67544;SDS011;54380;47.770;11.150;2023-02-28T12:07:47;15.35;;;4.75;;
67544;SDS011;54380;47.770;11.150;2023-02-28T12:10:25;14.70;;;5.13;;
67544;SDS011;54380;47.770;11.150;2023-02-28T12:13:01;18.67;;;5.07;;
67544;SDS011;54380;47.770;11.150;2023-02-28T12:15:42;14.20;;;4.78;;
67544;SDS011;54380;47.770;11.150;2023-02-28T12:18:26;16.30;;;5.75;;
67544;SDS011;54380;47.770;11.150;2023-02-28T12:21:08;9.52;;;3.47;;
67544;SDS011;54380;47.770;11.150;2023-02-28T12:26:50;14.68;;;5.45;;
67544;SDS011;54380;47.770;11.150;2023-02-28T12:29:20;17.23;;;6.32;;
67544;SDS011;54380;47.770;11.150;2023-02-28T12:31:51;18.00;;;5.25;;
67544;SDS011;54380;47.770;11.150;2023-02-28T12:34:22;14.23;;;4.10;;
67544;SDS011;54380;47.770;11.150;2023-02-28T12:36:54;16.73;;;5.80;;
67544;SDS011;54380;47.770;11.150;2023-02-28T12:39:23;20.05;;;6.97;;
67544;SDS011;54380;47.770;11.150;2023-02-28T12:41:54;14.82;;;4.65;;
67544;SDS011;54380;47.770;11.150;2023-02-28T12:44:26;13.25;;;4.70;;
67544;SDS011;54380;47.770;11.150;2023-02-28T12:46:58;13.20;;;4.18;;
67544;SDS011;54380;47.770;11.150;2023-02-28T12:49:27;15.90;;;5.05;;
67544;SDS011;54380;47.770;11.150;2023-02-28T12:51:59;16.30;;;6.05;;
67544;SDS011;54380;47.770;11.150;2023-02-28T12:54:29;16.95;;;5.32;;
67544;SDS011;54380;47.770;11.150;2023-02-28T12:57:05;16.75;;;5.88;;
67544;SDS011;54380;47.770;11.150;2023-02-28T12:59:38;13.52;;;4.55;;
67544;SDS011;54380;47.770;11.150;2023-02-28T13:02:22;17.33;;;5.97;;
67544;SDS011;54380;47.770;11.150;2023-02-28T13:08:11;15.10;;;4.07;;
67544;SDS011;54380;47.770;11.150;2023-02-28T13:10:57;16.05;;;5.47;;
67544;SDS011;54380;47.770;11.150;2023-02-28T13:13:26;14.40;;;4.82;;
67544;SDS011;54380;47.770;11.150;2023-02-28T13:15:56;14.95;;;5.28;;
67544;SDS011;54380;47.770;11.150;2023-02-28T13:18:30;15.10;;;4.90;;
67544;SDS011;54380;47.770;11.150;2023-02-28T13:21:03;16.33;;;5.47;;
67544;SDS011;54380;47.770;11.150;2023-02-28T13:23:56;16.85;;;6.18;;
67544;SDS011;54380;47.770;11.150;2023-02-28T13:29:35;15.68;;;5.43;;
67544;SDS011;54380;47.770;11.150;2023-02-28T13:35:12;14.25;;;4.60;;
67544;SDS011;54380;47.770;11.150;2023-02-28T13:37:42;16.95;;;4.82;;
67544;SDS011;54380;47.770;11.150;2023-02-28T13:40:28;16.38;;;5.65;;
67544;SDS011;54380;47.770;11.150;2023-02-28T13:43:06;16.85;;;5.07;;
67544;SDS011;54380;47.770;11.150;2023-02-28T13:45:36;16.92;;;5.57;;
67544;SDS011;54380;47.770;11.150;2023-02-28T13:48:15;14.77;;;4.28;;
67544;SDS011;54380;47.770;11.150;2023-02-28T13:50:43;19.65;;;6.07;;
67544;SDS011;54380;47.770;11.150;2023-02-28T13:56:25;16.38;;;5.38;;
67544;SDS011;54380;47.770;11.150;2023-02-28T13:59:01;13.80;;;4.30;;
67544;SDS011;54380;47.770;11.150;2023-02-28T14:04:49;15.60;;;5.57;;
67544;SDS011;54380;47.770;11.150;2023-02-28T14:07:27;15.75;;;4.93;;
67544;SDS011;54380;47.770;11.150;2023-02-28T14:10:02;14.23;;;4.55;;
67544;SDS011;54380;47.770;11.150;2023-02-28T14:12:51;17.27;;;5.10;;
67544;SDS011;54380;47.770;11.150;2023-02-28T14:18:17;18.67;;;6.00;;
67544;SDS011;54380;47.770;11.150;2023-02-28T14:21:02;15.15;;;5.50;;
67544;SDS011;54380;47.770;11.150;2023-02-28T14:23:41;18.55;;;6.07;;
67544;SDS011;54380;47.770;11.150;2023-02-28T14:26:21;18.05;;;6.57;;
67544;SDS011;54380;47.770;11.150;2023-02-28T14:29:05;15.82;;;5.22;;
67544;SDS011;54380;47.770;11.150;2023-02-28T14:31:49;14.02;;;4.25;;
67544;SDS011;54380;47.770;11.150;2023-02-28T14:34:26;18.52;;;6.95;;
67544;SDS011;54380;47.770;11.150;2023-02-28T14:37:03;16.92;;;5.13;;
67544;SDS011;54380;47.770;11.150;2023-02-28T14:39:31;15.35;;;5.75;;
67544;SDS011;54380;47.770;11.150;2023-02-28T14:41:59;19.73;;;5.18;;
67544;SDS011;54380;47.770;11.150;2023-02-28T14:44:30;15.88;;;4.68;;
67544;SDS011;54380;47.770;11.150;2023-02-28T14:46:59;20.75;;;5.47;;
67544;SDS011;54380;47.770;11.150;2023-02-28T14:49:35;14.65;;;4.72;;
67544;SDS011;54380;47.770;11.150;2023-02-28T14:52:22;16.42;;;5.07;;
67544;SDS011;54380;47.770;11.150;2023-02-28T14:54:51;16.17;;;5.63;;
67544;SDS011;54380;47.770;11.150;2023-02-28T14:57:21;12.40;;;3.90;;
67544;SDS011;54380;47.770;11.150;2023-02-28T14:59:56;16.73;;;5.63;;
67544;SDS011;54380;47.770;11.150;2023-02-28T15:02:25;15.48;;;4.88;;
67544;SDS011;54380;47.770;11.150;2023-02-28T15:04:53;17.23;;;5.55;;
67544;SDS011;54380;47.770;11.150;2023-02-28T15:07:26;19.20;;;6.97;;
67544;SDS011;54380;47.770;11.150;2023-02-28T15:10:15;16.60;;;5.20;;
67544;SDS011;54380;47.770;11.150;2023-02-28T15:12:46;20.33;;;6.30;;
67544;SDS011;54380;47.770;11.150;2023-02-28T15:15:20;17.67;;;5.68;;
67544;SDS011;54380;47.770;11.150;2023-02-28T15:18:01;17.35;;;6.20;;
67544;SDS011;54380;47.770;11.150;2023-02-28T15:20:31;22.08;;;8.30;;
67544;SDS011;54380;47.770;11.150;2023-02-28T15:23:02;16.92;;;6.05;;
67544;SDS011;54380;47.770;11.150;2023-02-28T15:25:30;11.90;;;3.70;;
67544;SDS011;54380;47.770;11.150;2023-02-28T15:27:59;15.68;;;5.40;;